»·PEaware :: N357XT L88-KSBP

N357XT :: L88-KSBP

FLIGHT INFORMATION

Flight Status: Arrived
Operator: Privately registered:
United States
More flights under this callsign
Pilot: Eric W. (23219)
Aircraft: PIPER PA-28 CHEROKEE ARCHER
(PA28)
More flights by this aircraft type
Origin: L88 New Cuyama
United States
Destination: KSBP San Luis Co Regl
United States
More flights between these airports :: More routes between these airports
Route: +
File this flight plan on PilotEdge
Remarks: Rookie Pilot - CAT-2 Rating
Altitude:
(Current/Filed)
6,000ft
Speed:
(Current/Filed)
130kts
Departed: 29-Jan-19 03:02 PM
Arrived: 29-Jan-19 04:05 PM
Distance/Time
Traveled:
50nm/1:03
Distance/Time
To Go:
Arrived

Flight Plot

Page will automatically refresh every two minutes.


Map Options




Map Legend


Flown Route
Filed Route
Departure Airport
Arrival Airport
Navaid (VOR, NDB)
Fix

Horizontal Profiles

Position Reports

Time Latitude Longitude Heading Altitude Ground
Speed
29-Jan-19 14:55 34.939975 -119.693827 23 2206ft 0kts
29-Jan-19 14:56 34.939978 -119.693826 22 2206ft 0kts
29-Jan-19 14:57 34.939981 -119.693824 22 2206ft 0kts
29-Jan-19 14:58 34.939693 -119.693964 189 2206ft 9kts
29-Jan-19 14:59 34.936958 -119.687262 116 2206ft 28kts
29-Jan-19 15:00 34.935256 -119.682655 294 2206ft 0kts
29-Jan-19 15:01 34.941857 -119.704338 283 2861ft 87kts
29-Jan-19 15:02 34.942641 -119.708109 281 3038ft 84kts
29-Jan-19 15:03 34.945054 -119.716326 291 3318ft 92kts
29-Jan-19 15:04 34.950419 -119.738708 285 4151ft 97kts
29-Jan-19 15:05 34.957509 -119.767929 283 5177ft 82kts
29-Jan-19 15:06 34.962564 -119.793681 298 6079ft 84kts
29-Jan-19 15:08 34.981984 -119.820117 317 6145ft 107kts
29-Jan-19 15:09 35.002030 -119.846078 307 5944ft 102kts
29-Jan-19 15:10 35.017706 -119.876133 304 6021ft 104kts
29-Jan-19 15:11 35.036634 -119.901753 303 6029ft 106kts
29-Jan-19 15:12 35.047376 -119.936501 289 5878ft 113kts
29-Jan-19 15:13 35.059348 -119.970251 303 4863ft 111kts
29-Jan-19 15:14 35.070389 -120.000899 295 3692ft 92kts
29-Jan-19 15:15 35.081956 -120.030393 302 3407ft 100kts
29-Jan-19 15:16 35.096857 -120.058992 303 3341ft 99kts
29-Jan-19 15:17 35.108799 -120.089810 299 3275ft 101kts
29-Jan-19 15:18 35.110304 -120.093841 298 3274ft 101kts
29-Jan-19 15:19 35.110850 -120.095264 299 3274ft 100kts
29-Jan-19 15:20 35.110850 -120.095264 299 3274ft 100kts
29-Jan-19 15:21 35.118767 -120.116325 296 3356ft 106kts
29-Jan-19 15:22 35.128976 -120.151495 290 3246ft 111kts
29-Jan-19 15:23 35.136555 -120.188111 288 3210ft 108kts
29-Jan-19 15:24 35.138820 -120.226971 267 3020ft 122kts
29-Jan-19 15:24 35.138750 -120.259514 272 2399ft 112kts
29-Jan-19 15:25 30.499341 -86.511286 192 92ft 0kts
29-Jan-19 15:26 30.499340 -86.511287 192 90ft 0kts
29-Jan-19 15:27 34.935269 -119.682697 295 2206ft 0kts
29-Jan-19 15:29 34.944002 -119.705392 292 3006ft 80kts
29-Jan-19 15:30 34.952364 -119.730639 284 3960ft 82kts
29-Jan-19 15:31 34.957795 -119.758618 278 4682ft 95kts
29-Jan-19 15:32 34.968317 -119.788501 302 5109ft 99kts
29-Jan-19 15:32 34.980892 -119.813205 304 5248ft 99kts
29-Jan-19 15:33 34.995915 -119.840749 301 5581ft 93kts
29-Jan-19 15:34 35.006410 -119.868761 292 6013ft 91kts
29-Jan-19 15:35 35.012261 -119.902866 282 5899ft 107kts
29-Jan-19 15:36 35.034516 -119.915791 354 6074ft 98kts
29-Jan-19 15:37 35.058844 -119.896950 337 5878ft 108kts
29-Jan-19 15:38 35.067195 -119.928564 279 6085ft 99kts
29-Jan-19 15:39 35.074660 -119.958276 302 5925ft 109kts
29-Jan-19 15:40 35.090596 -119.988331 308 5865ft 98kts
29-Jan-19 15:41 35.113696 -120.012514 355 4754ft 109kts
29-Jan-19 15:42 35.134806 -120.022329 297 5108ft 106kts
29-Jan-19 15:43 35.138080 -120.056780 269 5070ft 97kts
29-Jan-19 15:44 35.134673 -120.088350 264 5184ft 94kts
29-Jan-19 15:45 35.135656 -120.119265 293 5181ft 89kts
29-Jan-19 15:46 35.150950 -120.141757 326 5177ft 87kts
29-Jan-19 15:47 35.169774 -120.160814 312 5179ft 88kts
29-Jan-19 15:48 35.181526 -120.187841 289 5180ft 92kts
29-Jan-19 15:49 35.184236 -120.219175 276 5180ft 94kts
29-Jan-19 15:50 35.187661 -120.254733 287 3611ft 110kts
29-Jan-19 15:51 35.191847 -120.286122 254 2958ft 86kts
29-Jan-19 15:52 35.185292 -120.314104 261 3921ft 89kts
29-Jan-19 15:53 35.176277 -120.345311 246 4460ft 106kts
29-Jan-19 15:54 35.170529 -120.384201 277 4059ft 119kts
29-Jan-19 15:55 35.192595 -120.407382 3 4098ft 110kts
29-Jan-19 15:56 35.209386 -120.432669 270 3912ft 114kts
29-Jan-19 15:57 35.203328 -120.471368 240 3249ft 126kts
29-Jan-19 15:58 35.189928 -120.507129 253 2600ft 112kts
29-Jan-19 15:59 35.188531 -120.545042 284 2171ft 106kts
29-Jan-19 16:00 35.200376 -120.574840 301 1609ft 92kts
29-Jan-19 16:01 35.212624 -120.597616 303 1016ft 72kts
29-Jan-19 16:02 35.224298 -120.618169 304 620ft 73kts
29-Jan-19 16:03 35.234964 -120.636847 306 215ft 50kts
29-Jan-19 16:04 35.237243 -120.640187 2 215ft 0kts
29-Jan-19 16:05 35.237724 -120.640154 4 215ft 9kts
29-Jan-19 16:06 35.237951 -120.639039 356 215ft 0kts

Navigation Log

Ident Type
Flight plan parsing failed, navigation log unavailable